Key West, FL

23:25 EST le 28 février 2015 (GMT -0500)
Key West Naval Air Station | Change Station
CLOSE
Current Station
Aéroport
Location: Key West NAF,
Altitude: 7 ft
Stations météo à proximité

Alt. 7 ft 24.58 °N, 81.69 °W | Updated 32 minutes ago

Ciel dégagé
Ciel dégagé
76 ° F
Paraît 76 ° F
N
12
Vent Variable Vent de ENE

Aujourd'hui
Haut(e) -- | Bas -- ° F
--% Risque de précip.
Hier
Haut(e) -- | Bas -- ° F
Precip. -- pouce
6:50 AM 6:28 PM
Lune gibbeuse croissante, 82% visible
Pression 30.24 pouce
Visibilité 10.0 Miles terrestres
Nuages Peu 1600 ft
Point de rosée 71 ° F
Humidité 85%
Précipitations 0.00 pouce
Profondeur de la couche neigeuse Non disponible.
UV 0 sur 12
Pollen 9.20 sur 12
Qualité de l'air Non disponible.
Flu Activity Non disponible.
METAR KNQX 010353Z AUTO 07010KT 10SM FEW016 24/22 A3025 RMK AO2 SLP240 T02440217 $

More Conditions Fewer Conditions

Pression 30.24 pouce
Visibilité 10.0 Miles terrestres
Nuages Peu 1600 ft
Point de rosée 71 ° F
Humidité 85%
Précipitations 0.00 pouce
Profondeur de la couche neigeuse Non disponible.
UV 0 sur 12
Pollen 9.20 sur 12
Qualité de l'air Non disponible.
Flu Activity Non disponible.
METAR KNQX 010353Z AUTO 07010KT 10SM FEW016 24/22 A3025 RMK AO2 SLP240 T02440217 $

More Conditions Fewer Conditions

10-Day Weather Forecast

Almanac

Astronomie

Feb. 28, 2015 Lever Coucher
Temps réel
Crépuscule civil
Crépuscule nautique
Crépuscule astronomique
Lune
Durée de lumière visible
Longueur du jour
Tomorrow will be .
, % of the Moon is Illuminated

Extrêmes aujourd'hui

State Highs State Lows

Community

WunderPhotos

Upload Photos

1,801,316 Photos téléchargées !

WunderBlogs® & News

Nearby

Qualité de l'air

  Qualité de l'air Indice de la qualité de l'air Polluant
Not available.

Épaisseur de neige

Station Depth Altitude

Activité sismique

Ville Distance Mag. Time & Date
Minimum magnitude displayed is 2.5.

Températures des eaux côtières

Lieu Température

Stations météo à proximité